Hunters, WA

5:06 PM PDT on August 28, 2014 (GMT -0700)
Spokane International | Change Station
CLOSE
Current Station
Airport
Location: Spokane,
Elevation: 2365 ft
Nearby Weather Stations

Elev 2365 ft 47.62 °N, 117.53 °W | Updated 13 minutes ago

Scattered Clouds
Scattered Clouds
82 °F
Feels Like 82 °F
N
12
Wind Variable Wind from SW

Today
High -- | Low -- °F
--% Chance of Precip.
Yesterday
High -- | Low -- °F
Precip. -- in
6:05 AM 7:41 PM
Waxing Crescent, 10% visible
Pressure 29.90 in
Visibility 10.0 miles
Clouds Few 8000 ft
Scattered Clouds 15000 ft
Scattered Clouds 20000 ft
Dew Point 41 °F
Humidity 23%
Rainfall 0.00 in
Snow Depth Not available.
UV 2 out of 12
Pollen 7.70 out of 12
PM2.5 Good
Flu Activity Not available.
METAR KGEG 282353Z 22010KT 10SM FEW080 SCT150 SCT200 28/05 A2995 RMK AO2 SLP125 VIRGA T02780050 10283 20244 56009

More Conditions Fewer Conditions

Pressure 29.90 in
Visibility 10.0 miles
Clouds Few 8000 ft
Scattered Clouds 15000 ft
Scattered Clouds 20000 ft
Dew Point 41 °F
Humidity 23%
Rainfall 0.00 in
Snow Depth Not available.
UV 2 out of 12
Pollen 7.70 out of 12
PM2.5 Good
Flu Activity Not available.
METAR KGEG 282353Z 22010KT 10SM FEW080 SCT150 SCT200 28/05 A2995 RMK AO2 SLP125 VIRGA T02780050 10283 20244 56009

More Conditions Fewer Conditions

10-Day Weather Forecast

Almanac

Astronomy

Aug. 28, 2014 Rise Set
Actual Time 6:05 AM PDT 7:41 PM PDT
Civil Twilight 5:32 AM PDT 8:14 PM PDT
Nautical Twilight 4:52 AM PDT 8:53 PM PDT
Astronomical Twilight 4:09 AM PDT 9:36 PM PDT
Moon 9:18 AM PDT (8/28) 8:49 PM PDT (8/28)
Length of Visible Light 14h 41m
Length of Day
13h 36m
Tomorrow will be 3m 20s shorter.
Waxing Crescent, 10% of the Moon is Illuminated
Today
Waxing Crescent
Sep 2
First Quarter
Sep 8
Full
Sep 15
Last Quarter
Sep 24
New

Today's Extremes

State Highs State Lows

Community

WunderPhotos

Upload Photos

1,748,106 photos uploaded!

Nearby

Air Quality

  Air Quality AQ Index Pollutant
Yesterday Good
PM10
Yesterday Good
OZONE
Current Good
PM2.5
Thursday Good
PM10
Thursday Good
OZONE
Friday Good
PM10
Friday Good
OZONE

Snow Depth

Station Depth Elevation
Moses Mountain 1 in 5300 ft
Quartz Peak 1 in 4700 ft
Grouse Camp 0 in 5380 ft
Rainy Pass 0 in 4780 ft
Harts Pass 0 in 6500 ft

Earthquake Activity

City Distance Mag. Time & Date
No recent earthquake activity has been reported nearby.
Minimum magnitude displayed is 2.5.

Coastal Water Temperatures

Place Temperature
No Stations Reporting

Nearby Weather Stations